createdAt,value
2024-05-09T00:00:06.401Z,100354.97
2024-05-09T00:03:10.157Z,100385.31
2024-05-09T00:06:13.877Z,100385.88
2024-05-09T00:09:16.342Z,100375.81
2024-05-09T00:12:21.496Z,100389.19
2024-05-09T00:15:23.859Z,100385.19
2024-05-09T00:18:26.444Z,100374.03
2024-05-09T00:21:28.822Z,100377.25
2024-05-09T00:24:33.386Z,100374.09
2024-05-09T00:27:38.425Z,100377.75
2024-05-09T00:30:41.618Z,100372.09
2024-05-09T00:33:44.149Z,100384.41
2024-05-09T00:36:47.312Z,100375.78
2024-05-09T00:39:49.493Z,100371.75
2024-05-09T00:42:54.256Z,100371.09
2024-05-09T00:45:57.654Z,100381.59
2024-05-09T00:48:59.937Z,100364.75
2024-05-09T00:52:02.836Z,100373.94
2024-05-09T00:55:06.801Z,100374.16
2024-05-09T00:58:16.348Z,100370.81
2024-05-09T01:01:23.306Z,100371.81
2024-05-09T01:04:25.535Z,100379.50
2024-05-09T01:07:28.576Z,100373.19
2024-05-09T01:10:34.288Z,100372.34
2024-05-09T01:13:40.361Z,100366.19
2024-05-09T01:16:42.813Z,100370.72
2024-05-09T01:19:45.586Z,100368.03
2024-05-09T01:22:48.156Z,100360.84
2024-05-09T01:25:53.089Z,100363.16
2024-05-09T01:28:55.437Z,100364.84
2024-05-09T01:32:01.378Z,100360.66
2024-05-09T01:35:03.835Z,100372.34
2024-05-09T01:38:06.448Z,100370.19
2024-05-09T01:41:11.544Z,100371.19
2024-05-09T01:44:13.891Z,100360.34
2024-05-09T01:47:17.401Z,100343.34
2024-05-09T01:50:28.954Z,100364.69
2024-05-09T01:53:39.257Z,100373.69
2024-05-09T01:56:44.765Z,100367.84
2024-05-09T01:59:46.744Z,100363.03
2024-05-09T02:02:49.223Z,100352.00
2024-05-09T02:05:51.524Z,100349.19
2024-05-09T02:08:53.878Z,100353.69
2024-05-09T02:12:00.080Z,100353.69
2024-05-09T02:15:02.428Z,100341.81
2024-05-09T02:18:06.041Z,100348.66
2024-05-09T02:21:09.320Z,100352.09
2024-05-09T02:24:12.105Z,100334.78
2024-05-09T02:27:17.064Z,100354.59
2024-05-09T02:30:26.408Z,100357.94
2024-05-09T02:33:38.478Z,100324.28
2024-05-09T02:36:40.840Z,100353.44
2024-05-09T02:39:44.074Z,100335.59
2024-05-09T02:42:49.000Z,100342.25
2024-05-09T02:45:52.137Z,100354.59
2024-05-09T02:48:54.472Z,100362.53
2024-05-09T02:51:56.716Z,100338.53
2024-05-09T02:54:58.901Z,100305.63
2024-05-09T02:58:04.349Z,100304.38
2024-05-09T03:01:06.582Z,100347.75
2024-05-09T03:04:09.509Z,100336.19
2024-05-09T03:07:12.125Z,100347.44
2024-05-09T03:10:22.236Z,100314.50
2024-05-09T03:13:30.515Z,100328.41
2024-05-09T03:16:38.377Z,100339.53
2024-05-09T03:19:40.960Z,100352.00
2024-05-09T03:22:43.445Z,100349.13
2024-05-09T03:25:45.823Z,100345.00
2024-05-09T03:28:50.723Z,100348.44
2024-05-09T03:31:53.112Z,100348.03
2024-05-09T03:34:55.981Z,100342.03
2024-05-09T03:37:58.245Z,100300.28
2024-05-09T03:41:00.875Z,100342.66
2024-05-09T03:44:06.044Z,100332.81
2024-05-09T03:47:08.383Z,100350.16
2024-05-09T03:50:18.298Z,100346.50
2024-05-09T03:53:28.411Z,100340.03
2024-05-09T03:56:31.112Z,100351.09
2024-05-09T03:59:37.124Z,100359.06
2024-05-09T04:02:42.820Z,100347.75
2024-05-09T04:05:45.252Z,100363.38
2024-05-09T04:08:47.590Z,100358.75
2024-05-09T04:11:49.845Z,100367.09
2024-05-09T04:14:55.651Z,100367.63
2024-05-09T04:17:58.329Z,100332.16
2024-05-09T04:21:00.709Z,100379.38
2024-05-09T04:24:02.814Z,100368.19
2024-05-09T04:27:06.036Z,100379.03
2024-05-09T04:30:18.549Z,100368.88
2024-05-09T04:33:24.287Z,100369.53
2024-05-09T04:36:26.723Z,100357.38
2024-05-09T04:39:29.268Z,100389.03
2024-05-09T04:42:31.640Z,100392.53
2024-05-09T04:45:36.503Z,100389.69
2024-05-09T04:48:39.833Z,100362.03
2024-05-09T04:51:42.358Z,100402.38
2024-05-09T04:54:44.624Z,100386.72
2024-05-09T04:57:47.636Z,100405.53
2024-05-09T05:00:52.482Z,100407.72
2024-05-09T05:03:56.242Z,100406.84
2024-05-09T05:07:02.131Z,100416.19
2024-05-09T05:10:05.969Z,100398.84
2024-05-09T05:13:20.600Z,100411.03
2024-05-09T05:16:26.501Z,100423.03
2024-05-09T05:19:29.814Z,100394.03
2024-05-09T05:22:32.113Z,100420.22
2024-05-09T05:25:34.670Z,100428.56
2024-05-09T05:28:36.921Z,100410.22
2024-05-09T05:31:41.894Z,100418.88
2024-05-09T05:34:44.658Z,100420.06
2024-05-09T05:37:47.072Z,100425.06
2024-05-09T05:40:49.358Z,100431.41
2024-05-09T05:43:52.635Z,100427.06
2024-05-09T05:46:57.550Z,100419.91
2024-05-09T05:49:59.930Z,100431.06
2024-05-09T05:53:03.552Z,100406.72
2024-05-09T05:56:06.275Z,100427.88
2024-05-09T05:59:08.623Z,100425.72
2024-05-09T06:02:14.374Z,100372.66
2024-05-09T06:05:16.629Z,100361.75
2024-05-09T06:08:19.034Z,100341.41
2024-05-09T06:11:21.610Z,100367.31
2024-05-09T06:14:24.150Z,100329.47
2024-05-09T06:17:29.388Z,100364.50
2024-05-09T06:20:35.970Z,100363.81
2024-05-09T06:23:45.880Z,100369.28
2024-05-09T06:26:48.126Z,100343.63
2024-05-09T06:29:50.562Z,100351.44
2024-05-09T06:32:55.605Z,100423.28
2024-05-09T06:35:59.761Z,100456.91
2024-05-09T06:39:02.583Z,100440.06
2024-05-09T06:42:04.964Z,100421.88
2024-05-09T06:45:07.841Z,100415.69
2024-05-09T06:48:12.888Z,100422.34
2024-05-09T06:51:15.285Z,100463.91
2024-05-09T06:54:18.545Z,100452.94
2024-05-09T06:57:21.642Z,100459.50
2024-05-09T07:00:30.908Z,100465.03
2024-05-09T07:03:44.501Z,100392.72
2024-05-09T07:06:47.391Z,100416.53
2024-05-09T07:09:49.680Z,100395.38
2024-05-09T07:12:51.821Z,100403.41
2024-05-09T07:15:54.144Z,100407.41
2024-05-09T07:18:59.186Z,100406.19
2024-05-09T07:22:01.538Z,100408.69
2024-05-09T07:25:04.841Z,100405.13
2024-05-09T07:28:11.483Z,100398.91
2024-05-09T07:31:13.697Z,100406.75
2024-05-09T07:34:19.263Z,100404.16
2024-05-09T07:37:21.567Z,100411.63
2024-05-09T07:40:32.918Z,100392.41
2024-05-09T07:43:38.513Z,100401.03
2024-05-09T07:47:47.731Z,100410.41
2024-05-09T07:52:22.663Z,100411.63
2024-05-09T07:53:40.000Z,100398.94
2024-05-09T07:56:46.959Z,100371.03
2024-05-09T07:59:50.341Z,100402.44
2024-05-09T08:02:52.490Z,100399.50
2024-05-09T08:05:57.959Z,100402.19
2024-05-09T08:09:05.174Z,100394.28
2024-05-09T08:12:13.054Z,100391.72
2024-05-09T08:15:15.373Z,100392.81
2024-05-09T08:18:18.429Z,100395.13
2024-05-09T08:21:23.272Z,100388.59
2024-05-09T08:24:26.368Z,100397.91
2024-05-09T08:27:28.730Z,100386.53
2024-05-09T08:30:36.704Z,100402.72
2024-05-09T08:33:44.758Z,100400.97
2024-05-09T08:36:50.435Z,100390.50
2024-05-09T08:39:52.821Z,100399.44
2024-05-09T08:42:57.685Z,100403.66
2024-05-09T08:46:02.434Z,100398.06
2024-05-09T08:49:04.922Z,100399.69
2024-05-09T08:52:11.091Z,100401.78
2024-05-09T08:55:13.860Z,100392.16
2024-05-09T08:58:18.483Z,100399.44
2024-05-09T09:01:22.336Z,100408.91
2024-05-09T09:04:25.570Z,100394.78
2024-05-09T09:07:33.606Z,100389.41
2024-05-09T09:10:36.963Z,100399.63
2024-05-09T09:13:40.323Z,100383.25
2024-05-09T09:16:42.598Z,100404.41
2024-05-09T09:19:45.331Z,100404.72
2024-05-09T09:22:50.828Z,100399.00
2024-05-09T09:25:54.278Z,100357.22
2024-05-09T09:29:00.378Z,100402.44
2024-05-09T09:32:04.960Z,100376.81
2024-05-09T09:35:08.351Z,100381.81
2024-05-09T09:38:18.436Z,100393.97
2024-05-09T09:41:26.216Z,100353.19
2024-05-09T09:44:28.996Z,100379.88
2024-05-09T09:47:32.461Z,100391.00
2024-05-09T09:50:36.008Z,100355.59
2024-05-09T09:53:42.721Z,100385.84
2024-05-09T09:56:47.750Z,100381.81
2024-05-09T09:59:51.357Z,100383.31
2024-05-09T10:02:54.141Z,100356.81
2024-05-09T10:05:57.338Z,100376.16
2024-05-09T10:09:03.136Z,100357.53
2024-05-09T10:12:12.148Z,100349.28
2024-05-09T10:15:20.167Z,100310.66
2024-05-09T10:18:30.205Z,100333.41
2024-05-09T10:21:33.653Z,100350.03
2024-05-09T10:25:05.571Z,100355.69
2024-05-09T10:28:11.912Z,100350.66
2024-05-09T10:31:16.305Z,100368.50
2024-05-09T10:34:19.399Z,100372.84
2024-05-09T10:37:22.556Z,100354.09
2024-05-09T10:40:31.362Z,100365.19
2024-05-09T10:43:38.558Z,100351.25
2024-05-09T10:46:41.454Z,100334.31
2024-05-09T10:49:43.999Z,100352.03
2024-05-09T10:52:46.234Z,100344.03
2024-05-09T10:55:58.833Z,100332.22
2024-05-09T10:59:03.906Z,100327.88
2024-05-09T11:02:06.884Z,100342.31
2024-05-09T11:05:09.564Z,100288.09
2024-05-09T11:08:12.613Z,100334.72
2024-05-09T11:11:18.787Z,100332.22
2024-05-09T11:14:20.971Z,100314.63
2024-05-09T11:17:23.900Z,100322.91
2024-05-09T11:20:35.508Z,100323.72
2024-05-09T11:23:38.521Z,100331.81
2024-05-09T11:26:43.512Z,100298.84
2024-05-09T11:29:46.393Z,100297.38
2024-05-09T11:32:49.533Z,100317.81
2024-05-09T11:35:51.770Z,100324.41
2024-05-09T11:38:54.028Z,100322.06
2024-05-09T11:41:58.876Z,100318.09
2024-05-09T11:45:01.082Z,100307.47
2024-05-09T11:48:04.232Z,100310.38
2024-05-09T11:51:06.544Z,100302.03
2024-05-09T11:54:08.704Z,100284.94
2024-05-09T11:57:14.504Z,100296.66
2024-05-09T12:00:24.589Z,100294.59
2024-05-09T12:03:31.871Z,100292.59
2024-05-09T12:06:34.263Z,100286.19
2024-05-09T12:09:36.521Z,100281.88
2024-05-09T12:12:41.440Z,100273.75
2024-05-09T12:15:43.718Z,100286.50
2024-05-09T12:18:46.809Z,100292.63
2024-05-09T12:21:49.288Z,100285.31
2024-05-09T12:24:51.636Z,100291.09
2024-05-09T12:27:57.498Z,100279.47
2024-05-09T12:30:59.787Z,100272.91
2024-05-09T12:34:02.676Z,100279.94
2024-05-09T12:37:05.225Z,100273.19
2024-05-09T12:40:15.833Z,100273.59
2024-05-09T12:43:23.583Z,100258.53
2024-05-09T12:46:25.948Z,100274.94
2024-05-09T12:49:28.472Z,100261.75
2024-05-09T12:52:30.815Z,100271.88
2024-05-09T12:55:41.161Z,100256.75
2024-05-09T12:58:53.836Z,100257.22
2024-05-09T13:01:58.792Z,100252.91
2024-05-09T13:05:03.005Z,100241.16
2024-05-09T13:08:06.254Z,100249.94
2024-05-09T13:11:08.835Z,100246.44
2024-05-09T13:14:14.190Z,100245.00
2024-05-09T13:17:16.751Z,100185.13
2024-05-09T13:20:26.326Z,100216.56
2024-05-09T13:23:34.957Z,100261.03
2024-05-09T13:26:37.249Z,100250.00
2024-05-09T13:29:44.202Z,100236.72
2024-05-09T13:32:47.680Z,100224.31
2024-05-09T13:35:51.076Z,100205.81
2024-05-09T13:38:56.872Z,100242.94
2024-05-09T13:41:58.997Z,100227.56
2024-05-09T13:45:04.662Z,100207.06
2024-05-09T13:48:10.002Z,100216.25
2024-05-09T13:51:12.583Z,100222.75
2024-05-09T13:54:16.661Z,100219.84
2024-05-09T13:57:19.745Z,100220.22
2024-05-09T14:03:30.521Z,100214.47
2024-05-09T14:06:33.505Z,100203.41
2024-05-09T14:09:36.094Z,100212.63
2024-05-09T14:12:38.724Z,100219.75
2024-05-09T14:15:43.820Z,100217.34
2024-05-09T14:18:46.155Z,100213.22
2024-05-09T14:21:48.757Z,100222.78
2024-05-09T14:24:51.056Z,100209.41
2024-05-09T14:27:53.676Z,100211.94
2024-05-09T14:30:58.629Z,100201.84
2024-05-09T14:34:01.721Z,100212.97
2024-05-09T14:37:04.428Z,100191.31
2024-05-09T14:40:14.692Z,100193.88
2024-05-09T14:43:23.526Z,100197.19
2024-05-09T14:46:28.966Z,100189.28
2024-05-09T14:49:31.474Z,100184.91
2024-05-09T14:52:34.217Z,100192.53
2024-05-09T14:55:37.742Z,100159.59
2024-05-09T14:58:41.461Z,100175.28
2024-05-09T15:01:46.571Z,100187.75
2024-05-09T15:04:49.501Z,100181.00
2024-05-09T15:07:51.769Z,100186.91
2024-05-09T15:10:54.599Z,100180.34
2024-05-09T15:13:56.862Z,100176.91
2024-05-09T15:17:02.000Z,100165.03
2024-05-09T15:20:09.192Z,100170.22
2024-05-09T15:23:11.823Z,100154.41
2024-05-09T15:26:14.466Z,100174.41
2024-05-09T15:29:16.711Z,100176.06
2024-05-09T15:32:21.893Z,100158.28
2024-05-09T15:35:23.784Z,100179.84
2024-05-09T15:38:27.865Z,100173.91
2024-05-09T15:41:30.076Z,100163.38
2024-05-09T15:44:34.217Z,100171.53
2024-05-09T15:47:39.331Z,100164.41
2024-05-09T15:50:42.752Z,100165.44
2024-05-09T15:53:45.277Z,100164.91
2024-05-09T15:56:49.508Z,100180.13
2024-05-09T15:59:52.122Z,100148.25
2024-05-09T16:02:57.131Z,100171.63
2024-05-09T16:05:59.586Z,100162.72
2024-05-09T16:09:02.193Z,100167.16
2024-05-09T16:12:05.217Z,100171.38
2024-05-09T16:15:08.622Z,100159.88
2024-05-09T16:18:13.748Z,100185.97
2024-05-09T16:21:15.710Z,100163.16
2024-05-09T16:24:17.839Z,100173.31
2024-05-09T16:27:20.040Z,100169.81
2024-05-09T16:30:28.305Z,100166.72
2024-05-09T16:33:40.567Z,100141.47
2024-05-09T16:36:44.102Z,100163.03
2024-05-09T16:39:46.511Z,100164.72
2024-05-09T16:42:49.070Z,100152.50
2024-05-09T16:45:51.435Z,100168.88
2024-05-09T16:48:56.822Z,100165.13
2024-05-09T16:51:59.230Z,100174.41
2024-05-09T16:55:02.231Z,100176.69
2024-05-09T16:58:05.346Z,100176.25
2024-05-09T17:01:07.799Z,100167.22
2024-05-09T17:04:13.918Z,100143.94
2024-05-09T17:07:16.710Z,100167.22
2024-05-09T17:10:26.780Z,100163.38
2024-05-09T17:13:39.336Z,100159.38
2024-05-09T17:16:41.952Z,100171.22
2024-05-09T17:19:48.216Z,100175.28
2024-05-09T17:22:50.449Z,100183.66
2024-05-09T17:25:52.700Z,100192.19
2024-05-09T17:28:54.997Z,100185.72
2024-05-09T17:31:57.859Z,100188.00
2024-05-09T17:35:03.094Z,100184.50
2024-05-09T17:38:05.539Z,100191.25
2024-05-09T17:41:07.949Z,100196.31
2024-05-09T17:44:10.321Z,100185.16
2024-05-09T17:47:12.930Z,100192.16
2024-05-09T17:50:24.550Z,100194.28
2024-05-09T17:53:33.213Z,100192.63
2024-05-09T17:56:35.870Z,100193.34
2024-05-09T17:59:38.315Z,100205.66
2024-05-09T18:02:40.875Z,100204.09
2024-05-09T18:05:46.024Z,100197.81
2024-05-09T18:08:48.339Z,100209.44
2024-05-09T18:11:50.920Z,100218.22
2024-05-09T18:14:53.060Z,100218.47
2024-05-09T18:17:55.408Z,100216.25
2024-05-09T18:21:00.450Z,100191.59
2024-05-09T18:24:02.672Z,100214.50
2024-05-09T18:27:06.403Z,100218.81
2024-05-09T18:30:23.787Z,100230.22
2024-05-09T18:33:30.849Z,100207.59
2024-05-09T18:36:35.928Z,100236.06
2024-05-09T18:39:39.967Z,100242.88
2024-05-09T18:42:42.601Z,100237.41
2024-05-09T18:45:46.019Z,100250.88
2024-05-09T18:48:48.470Z,100259.56
2024-05-09T18:51:53.482Z,100245.91
2024-05-09T18:54:55.832Z,100249.69
2024-05-09T18:57:58.072Z,100272.91
2024-05-09T19:01:01.929Z,100277.25
2024-05-09T19:04:05.027Z,100273.06
2024-05-09T19:07:10.418Z,100273.84
2024-05-09T19:10:22.157Z,100276.56
2024-05-09T19:13:28.048Z,100256.53
2024-05-09T19:16:31.173Z,100269.16
2024-05-09T19:19:33.950Z,100289.94
2024-05-09T19:22:39.149Z,100266.38
2024-05-09T19:25:41.794Z,100295.75
2024-05-09T19:28:44.068Z,100290.63
2024-05-09T19:31:46.747Z,100293.59
2024-05-09T19:34:49.099Z,100294.47
2024-05-09T19:37:54.213Z,100310.63
2024-05-09T19:40:56.476Z,100304.75
2024-05-09T19:43:58.843Z,100310.03
2024-05-09T19:47:01.452Z,100314.19
2024-05-09T19:50:06.327Z,100313.19
2024-05-09T19:53:16.261Z,100303.16
2024-05-09T19:56:18.504Z,100322.75
2024-05-09T19:59:20.622Z,100324.03
2024-05-09T20:02:23.654Z,100398.78
2024-05-09T20:05:26.918Z,100393.31
2024-05-09T20:08:33.286Z,100399.41
2024-05-09T20:11:37.998Z,100387.81
2024-05-09T20:14:40.612Z,100392.97
2024-05-09T20:17:42.777Z,100403.00
2024-05-09T20:20:45.669Z,100393.81
2024-05-09T20:23:51.160Z,100406.31
2024-05-09T20:26:53.390Z,100402.34
2024-05-09T20:29:56.516Z,100405.31
2024-05-09T20:32:59.006Z,100405.72
2024-05-09T20:36:02.468Z,100405.88
2024-05-09T20:39:07.633Z,100416.31
2024-05-09T20:42:09.874Z,100406.53
2024-05-09T20:45:12.116Z,100409.91
2024-05-09T20:48:14.583Z,100420.75
2024-05-09T20:51:16.750Z,100420.56
2024-05-09T20:54:21.600Z,100419.72
2024-05-09T20:57:24.517Z,100399.19
2024-05-09T21:00:35.156Z,100416.38
2024-05-09T21:03:42.150Z,100428.25
2024-05-09T21:06:44.471Z,100430.28
2024-05-09T21:09:49.324Z,100432.19
2024-05-09T21:12:52.355Z,100431.31
2024-05-09T21:15:54.654Z,100444.44
2024-05-09T21:18:57.403Z,100426.25
2024-05-09T21:21:59.618Z,100447.22
2024-05-09T21:25:05.625Z,100444.84
2024-05-09T21:28:08.305Z,100443.72
2024-05-09T21:31:10.691Z,100448.47
2024-05-09T21:34:13.307Z,100447.75
2024-05-09T21:37:15.647Z,100456.50
2024-05-09T21:40:30.690Z,100458.41
2024-05-09T21:43:37.774Z,100445.56
2024-05-09T21:46:40.123Z,100459.66
2024-05-09T21:49:43.239Z,100450.59
2024-05-09T21:52:45.438Z,100453.59
2024-05-09T21:55:50.916Z,100463.94
2024-05-09T21:58:53.176Z,100460.56
2024-05-09T22:01:55.705Z,100457.72
2024-05-09T22:04:58.571Z,100458.03
2024-05-09T22:08:01.076Z,100452.88
2024-05-09T22:11:07.205Z,100463.13
2024-05-09T22:14:09.356Z,100452.50
2024-05-09T22:17:12.311Z,100461.34
2024-05-09T22:20:21.918Z,100464.78
2024-05-09T22:23:31.179Z,100468.31
2024-05-09T22:26:36.487Z,100452.19
2024-05-09T22:29:38.873Z,100468.81
2024-05-09T22:32:41.229Z,100466.47
2024-05-09T22:35:43.587Z,100465.78
2024-05-09T22:38:45.620Z,100472.81
2024-05-09T22:41:50.916Z,100470.44
2024-05-09T22:44:52.990Z,100450.38
2024-05-09T22:47:55.415Z,100479.41
2024-05-09T22:50:57.688Z,100471.16
2024-05-09T22:54:01.315Z,100466.31
2024-05-09T22:57:06.229Z,100472.63
2024-05-09T23:00:12.420Z,100484.38
2024-05-09T23:03:18.941Z,100483.97
2024-05-09T23:06:21.178Z,100480.19
2024-05-09T23:09:24.263Z,100474.03
2024-05-09T23:12:29.090Z,100470.09
2024-05-09T23:15:32.119Z,100473.41
2024-05-09T23:18:34.615Z,100479.63
2024-05-09T23:21:39.039Z,100464.13
2024-05-09T23:24:41.388Z,100485.78
2024-05-09T23:27:46.335Z,100475.78
2024-05-09T23:30:48.606Z,100476.69
2024-05-09T23:33:51.214Z,100478.00
2024-05-09T23:36:53.610Z,100481.34
2024-05-09T23:39:56.607Z,100479.88
2024-05-09T23:43:01.434Z,100481.66
2024-05-09T23:46:04.243Z,100483.09
2024-05-09T23:49:06.405Z,100486.44
2024-05-09T23:52:08.679Z,100465.81
2024-05-09T23:55:11.075Z,100481.28
2024-05-09T23:58:16.012Z,100471.81
